Shalalth, Canada
Current Conditions -  °F | °C
As of 7:00 AM on Wednesday 22 Oct 2014 (Local Time) from CYIN Reporting Station
Scattered Clouds Scattered Clouds  
Wind Chill: 35°   Ceiling: Unl
Heat Index: 43°   Visibility: 9mi
Dew Point: 36°   Wind: 18mph
Humidity: 76%   Direction: 140°SE
Pressure: 29.52"   Gusts: 41mph
Location:  50.73°N, 122.23°W
Report Text: CYIN 221400Z AUTO 14016G36KT 9SM FEW180 SCT230 06/02 A2952 RMK SLP003 DENSITY ALT 3900FT
Loading
Personal Weather Stations






























Interactive Weather Map
Tropical Storm Tracking
New forecast layout! Learn more

10-Day Weather Forecast

Advertisements
Track Severe Weather on mobile